Time;durP1;ratioP1;P1;durP2;ratioP2;P2;SDS_P1;SDS_P2;PMS_P1;PMS_P2;Temp;Humidity;BMP_temperature;BMP_pressure;BME280_temperature;BME280_humidity;BME280_pressure;Samples;Min_cycle;Max_cycle;Signal;HPM_P1;HPM_P2
2022/10/18 00:00:16;;;;;;;8.75;5.32;;;;;;;;;;4918514;29;20067;-66
2022/10/18 00:02:43;;;;;;;11.82;6.43;;;;;;;;;;4918058;29;20052;-65
2022/10/18 00:05:12;;;;;;;12.07;5.97;;;;;;;;;;4902136;29;20040;-66
2022/10/18 00:07:39;;;;;;;11.27;5.70;;;;;;;;;;4918361;29;20048;-66
2022/10/18 00:10:06;;;;;;;11.18;5.43;;;;;;;;;;4917519;29;20044;-66
2022/10/18 00:12:34;;;;;;;10.43;5.30;;;;;;;;;;4916879;29;20055;-65
2022/10/18 00:15:05;;;;;;;12.52;6.13;;;;;;;;;;4917081;29;20059;-66
2022/10/18 00:17:35;;;;;;;12.77;5.78;;;;;;;;;;4918330;29;20052;-66
2022/10/18 00:20:02;;;;;;;12.07;5.53;;;;;;;;;;4917137;29;20048;-66
2022/10/18 00:22:29;;;;;;;9.77;5.57;;;;;;;;;;4916665;29;20080;-66
2022/10/18 00:24:56;;;;;;;10.45;5.40;;;;;;;;;;4918295;29;20044;-66
2022/10/18 00:27:23;;;;;;;11.18;5.00;;;;;;;;;;4917411;29;20104;-66
2022/10/18 00:29:53;;;;;;;9.93;5.28;;;;;;;;;;4917352;29;20127;-65
2022/10/18 00:32:22;;;;;;;17.52;6.25;;;;;;;;;;4916468;29;20062;-65
2022/10/18 00:34:49;;;;;;;8.63;5.28;;;;;;;;;;4918562;29;20485;-65
2022/10/18 00:37:16;;;;;;;11.65;5.53;;;;;;;;;;4918628;29;20124;-66
2022/10/18 00:39:43;;;;;;;15.68;5.85;;;;;;;;;;4918800;29;20054;-66
2022/10/18 00:42:19;;;;;;;14.70;6.35;;;;;;;;;;4917669;29;20063;-65
2022/10/18 00:44:49;;;;;;;13.48;5.57;;;;;;;;;;4916831;29;20044;-66
2022/10/18 00:47:17;;;;;;;13.43;5.90;;;;;;;;;;4917741;29;20047;-65
2022/10/18 00:49:50;;;;;;;11.65;6.00;;;;;;;;;;4917959;29;20097;-66
2022/10/18 00:52:19;;;;;;;10.00;5.93;;;;;;;;;;4917435;29;20056;-65
2022/10/18 00:54:46;;;;;;;11.65;6.15;;;;;;;;;;4916705;29;20052;-65
2022/10/18 00:57:13;;;;;;;8.63;5.50;;;;;;;;;;4916888;29;20044;-65
2022/10/18 00:59:40;;;;;;;9.30;5.60;;;;;;;;;;4918053;29;20147;-65
2022/10/18 01:02:07;;;;;;;11.32;6.20;;;;;;;;;;4916478;29;20104;-66
2022/10/18 01:04:34;;;;;;;14.23;6.43;;;;;;;;;;4917412;29;20095;-63
2022/10/18 01:07:15;;;;;;;10.15;5.20;;;;;;;;;;4901213;29;20044;-65
2022/10/18 01:09:48;;;;;;;9.18;5.47;;;;;;;;;;4916040;29;20107;-62
2022/10/18 01:12:17;;;;;;;9.88;6.28;;;;;;;;;;4916739;29;20048;-63
2022/10/18 01:14:55;;;;;;;8.02;6.13;;;;;;;;;;4915865;29;20409;-63
2022/10/18 01:17:28;;;;;;;12.02;5.88;;;;;;;;;;4915964;29;20059;-65
2022/10/18 01:20:05;;;;;;;9.35;5.70;;;;;;;;;;4900532;29;20048;-63
2022/10/18 01:22:46;;;;;;;7.88;5.55;;;;;;;;;;4915118;29;20059;-65
2022/10/18 01:25:16;;;;;;;8.48;5.95;;;;;;;;;;4916007;29;20048;-62
2022/10/18 01:27:46;;;;;;;13.52;6.35;;;;;;;;;;4916063;29;20055;-63
2022/10/18 01:30:13;;;;;;;11.63;5.80;;;;;;;;;;4915819;29;20142;-65
2022/10/18 01:32:43;;;;;;;9.00;5.40;;;;;;;;;;4915647;29;20084;-64
2022/10/18 01:35:15;;;;;;;9.05;5.43;;;;;;;;;;4915815;29;20056;-64
2022/10/18 01:37:44;;;;;;;10.00;5.75;;;;;;;;;;4900294;29;20505;-63
2022/10/18 01:40:11;;;;;;;11.45;5.57;;;;;;;;;;4916915;29;20088;-65
2022/10/18 01:42:38;;;;;;;13.68;6.35;;;;;;;;;;4928210;23;20092;-61
2022/10/18 01:45:06;;;;;;;13.05;5.90;;;;;;;;;;4897330;29;20049;-61
2022/10/18 01:47:33;;;;;;;11.38;5.50;;;;;;;;;;4897604;29;20119;-62
2022/10/18 01:50:01;;;;;;;10.10;5.90;;;;;;;;;;4897552;29;20123;-61
2022/10/18 01:52:28;;;;;;;10.82;5.10;;;;;;;;;;4896885;29;20048;-61
2022/10/18 01:54:55;;;;;;;13.73;5.80;;;;;;;;;;4897411;29;20044;-61
2022/10/18 01:57:31;;;;;;;15.65;5.95;;;;;;;;;;4896336;29;20045;-61
2022/10/18 02:00:17;;;;;;;9.48;5.50;;;;;;;;;;4897324;29;20049;-61
2022/10/18 02:02:46;;;;;;;8.52;5.50;;;;;;;;;;4896507;29;20568;-61
2022/10/18 02:05:23;;;;;;;9.60;5.57;;;;;;;;;;4897545;29;20125;-61
2022/10/18 02:08:05;;;;;;;10.23;5.60;;;;;;;;;;4897142;29;20045;-61
2022/10/18 02:10:49;;;;;;;13.90;6.03;;;;;;;;;;4896368;29;20115;-60
2022/10/18 02:13:17;;;;;;;15.15;5.97;;;;;;;;;;4896622;29;20454;-61
2022/10/18 02:15:45;;;;;;;8.65;6.03;;;;;;;;;;4897382;29;20068;-60
2022/10/18 02:18:14;;;;;;;8.65;6.00;;;;;;;;;;4896964;29;20475;-61
2022/10/18 02:20:41;;;;;;;9.07;5.70;;;;;;;;;;4897207;29;20041;-61
2022/10/18 02:23:09;;;;;;;14.23;5.80;;;;;;;;;;4896386;29;20512;-61
2022/10/18 02:25:36;;;;;;;11.13;6.00;;;;;;;;;;4896023;29;20049;-61
2022/10/18 02:28:02;;;;;;;10.93;5.60;;;;;;;;;;4897047;29;20080;-61
2022/10/18 02:30:36;;;;;;;15.82;6.20;;;;;;;;;;4897107;29;20107;-61
2022/10/18 02:33:15;;;;;;;10.90;5.63;;;;;;;;;;4896421;29;20045;-61
2022/10/18 02:35:48;;;;;;;10.65;5.30;;;;;;;;;;4897130;29;20053;-61
2022/10/18 02:38:16;;;;;;;13.73;6.20;;;;;;;;;;4897372;29;20462;-61
2022/10/18 02:40:42;;;;;;;14.43;5.60;;;;;;;;;;4896915;29;20076;-61
2022/10/18 02:43:08;;;;;;;11.45;6.03;;;;;;;;;;4896767;29;20040;-62
2022/10/18 02:45:35;;;;;;;8.05;6.28;;;;;;;;;;4897200;29;20120;-61
2022/10/18 02:48:01;;;;;;;11.10;5.50;;;;;;;;;;4897176;29;20040;-61
2022/10/18 02:50:28;;;;;;;10.45;6.13;;;;;;;;;;4896910;29;20052;-62
2022/10/18 02:52:54;;;;;;;7.40;5.22;;;;;;;;;;4896144;29;20089;-63
2022/10/18 02:55:20;;;;;;;9.88;5.65;;;;;;;;;;4896859;29;20167;-61
2022/10/18 02:57:47;;;;;;;10.50;5.93;;;;;;;;;;4896768;29;20045;-62
2022/10/18 03:00:13;;;;;;;12.00;5.05;;;;;;;;;;4897052;29;20106;-63
2022/10/18 03:02:40;;;;;;;14.13;5.65;;;;;;;;;;4894820;29;20076;-63
2022/10/18 03:05:06;;;;;;;11.55;5.40;;;;;;;;;;4896764;29;20072;-62
2022/10/18 03:07:33;;;;;;;11.80;5.97;;;;;;;;;;4896655;29;20450;-61
2022/10/18 03:09:59;;;;;;;9.48;5.47;;;;;;;;;;4895574;29;20548;-62
2022/10/18 03:12:26;;;;;;;11.43;5.50;;;;;;;;;;4895836;29;20466;-62
2022/10/18 03:14:52;;;;;;;10.88;5.97;;;;;;;;;;4900337;29;20532;-62
2022/10/18 03:17:19;;;;;;;9.00;4.90;;;;;;;;;;4900437;29;20055;-62
2022/10/18 03:19:45;;;;;;;9.75;6.07;;;;;;;;;;4900297;29;20079;-61
2022/10/18 03:22:11;;;;;;;13.07;5.80;;;;;;;;;;4899405;29;20093;-62
2022/10/18 03:24:38;;;;;;;11.10;5.38;;;;;;;;;;4899973;29;20044;-62
2022/10/18 03:27:04;;;;;;;13.57;6.75;;;;;;;;;;4899974;29;20123;-62
2022/10/18 03:29:30;;;;;;;7.97;5.82;;;;;;;;;;4900134;29;20089;-62
2022/10/18 03:31:57;;;;;;;12.88;6.93;;;;;;;;;;4898506;29;20526;-62
2022/10/18 03:34:23;;;;;;;10.20;6.03;;;;;;;;;;4899849;29;20128;-63
2022/10/18 03:36:49;;;;;;;13.02;5.75;;;;;;;;;;4898845;29;20044;-62
2022/10/18 03:39:16;;;;;;;12.13;5.90;;;;;;;;;;4899985;29;20049;-61
2022/10/18 03:41:42;;;;;;;14.52;6.78;;;;;;;;;;4899645;29;20127;-62
2022/10/18 03:44:09;;;;;;;8.90;5.90;;;;;;;;;;4899156;29;20495;-62
2022/10/18 03:46:35;;;;;;;10.77;5.82;;;;;;;;;;4899816;29;20104;-62
2022/10/18 03:49:02;;;;;;;17.50;6.72;;;;;;;;;;4899783;29;20119;-62
2022/10/18 03:51:28;;;;;;;8.93;7.03;;;;;;;;;;4899295;29;20585;-63
2022/10/18 03:53:54;;;;;;;11.18;6.45;;;;;;;;;;4899100;29;20049;-63
2022/10/18 03:56:21;;;;;;;13.82;6.30;;;;;;;;;;4899980;29;20564;-62
2022/10/18 03:58:47;;;;;;;17.30;6.55;;;;;;;;;;4899728;29;20096;-63
2022/10/18 04:01:13;;;;;;;12.00;5.70;;;;;;;;;;5344235;23;20686;-66
2022/10/18 04:03:40;;;;;;;14.85;7.88;;;;;;;;;;4914604;29;20114;-66
2022/10/18 04:06:08;;;;;;;12.90;6.00;;;;;;;;;;4918301;29;20075;-66
2022/10/18 04:08:35;;;;;;;12.63;6.50;;;;;;;;;;4918287;29;20072;-66
2022/10/18 04:11:07;;;;;;;12.15;6.05;;;;;;;;;;4916964;29;20433;-66
2022/10/18 04:13:34;;;;;;;12.07;6.15;;;;;;;;;;4897690;29;20044;-66
2022/10/18 04:16:00;;;;;;;16.63;6.90;;;;;;;;;;4899268;29;20053;-65
2022/10/18 04:18:26;;;;;;;12.40;6.47;;;;;;;;;;4882728;29;20065;-66
2022/10/18 04:20:53;;;;;;;14.90;7.85;;;;;;;;;;4917341;23;20124;-61
2022/10/18 04:23:19;;;;;;;10.07;7.10;;;;;;;;;;4897167;29;20123;-61
2022/10/18 04:25:46;;;;;;;14.82;7.43;;;;;;;;;;4898093;29;20476;-61
2022/10/18 04:28:12;;;;;;;11.60;7.15;;;;;;;;;;4899419;29;20049;-62
2022/10/18 04:30:38;;;;;;;9.10;5.93;;;;;;;;;;4898930;29;20068;-62
2022/10/18 04:33:05;;;;;;;9.32;6.40;;;;;;;;;;4898632;29;20119;-62
2022/10/18 04:35:31;;;;;;;13.82;6.88;;;;;;;;;;4898099;29;20100;-62
2022/10/18 04:37:57;;;;;;;11.55;6.50;;;;;;;;;;4897761;29;20076;-62
2022/10/18 04:40:24;;;;;;;11.45;7.20;;;;;;;;;;4898721;29;20080;-62
2022/10/18 04:42:50;;;;;;;9.90;5.95;;;;;;;;;;4898228;29;20112;-62
2022/10/18 04:45:17;;;;;;;18.83;7.82;;;;;;;;;;4913341;29;20072;-62
2022/10/18 04:47:43;;;;;;;9.23;6.47;;;;;;;;;;4898796;29;20076;-62
2022/10/18 04:50:09;;;;;;;15.50;6.85;;;;;;;;;;4898955;29;20113;-62
2022/10/18 04:52:36;;;;;;;12.43;6.90;;;;;;;;;;4898122;29;20112;-62
2022/10/18 04:55:02;;;;;;;11.40;6.63;;;;;;;;;;4898714;29;20053;-62
2022/10/18 04:57:29;;;;;;;10.82;6.07;;;;;;;;;;4898585;29;20076;-62
2022/10/18 04:59:56;;;;;;;11.43;6.82;;;;;;;;;;4897277;29;20108;-62
2022/10/18 05:02:22;;;;;;;8.65;6.10;;;;;;;;;;4897725;29;20513;-61
2022/10/18 05:04:49;;;;;;;8.02;5.93;;;;;;;;;;4898406;29;20045;-62
2022/10/18 05:07:16;;;;;;;17.05;7.13;;;;;;;;;;4896617;29;20052;-62
2022/10/18 05:09:42;;;;;;;9.50;6.88;;;;;;;;;;4897706;29;20458;-61
2022/10/18 05:12:08;;;;;;;8.82;6.78;;;;;;;;;;4897577;29;20076;-61
2022/10/18 05:14:35;;;;;;;10.70;7.32;;;;;;;;;;4898132;29;20053;-61
2022/10/18 05:17:01;;;;;;;16.65;6.22;;;;;;;;;;4898277;29;20454;-61
2022/10/18 05:19:27;;;;;;;12.05;6.40;;;;;;;;;;4898021;29;20072;-61
2022/10/18 05:21:54;;;;;;;13.20;7.10;;;;;;;;;;4897954;29;20521;-61
2022/10/18 05:24:20;;;;;;;11.75;6.68;;;;;;;;;;4897263;29;20041;-61
2022/10/18 05:26:52;;;;;;;14.93;7.28;;;;;;;;;;4897985;29;20049;-61
2022/10/18 05:29:18;;;;;;;16.48;7.10;;;;;;;;;;4897755;29;20064;-61
2022/10/18 05:31:45;;;;;;;12.00;7.22;;;;;;;;;;4896512;29;20470;-60
2022/10/18 05:34:11;;;;;;;12.95;6.95;;;;;;;;;;4897195;29;20071;-61
2022/10/18 05:36:37;;;;;;;13.90;7.00;;;;;;;;;;4897070;29;20045;-62
2022/10/18 05:39:04;;;;;;;8.95;6.53;;;;;;;;;;4912159;29;20048;-62
2022/10/18 05:41:31;;;;;;;12.45;6.93;;;;;;;;;;4897704;29;20128;-62
2022/10/18 05:43:57;;;;;;;15.80;7.30;;;;;;;;;;4897089;29;20088;-62
2022/10/18 05:46:23;;;;;;;13.88;7.45;;;;;;;;;;4912222;29;20044;-62
2022/10/18 05:48:50;;;;;;;9.07;6.72;;;;;;;;;;4912248;29;20044;-62
2022/10/18 05:51:17;;;;;;;11.43;8.20;;;;;;;;;;4912092;29;20048;-62
2022/10/18 05:53:43;;;;;;;17.40;7.93;;;;;;;;;;4897054;29;20041;-62
2022/10/18 05:56:10;;;;;;;16.00;7.88;;;;;;;;;;4897648;29;20092;-62
2022/10/18 05:58:37;;;;;;;15.73;7.80;;;;;;;;;;4911794;29;20052;-62
2022/10/18 06:01:04;;;;;;;9.77;7.13;;;;;;;;;;4896117;29;20079;-61
2022/10/18 06:03:31;;;;;;;10.57;6.25;;;;;;;;;;4896626;29;20036;-61
2022/10/18 06:06:01;;;;;;;12.80;6.25;;;;;;;;;;4897510;29;20076;-61
2022/10/18 06:08:27;;;;;;;15.30;6.03;;;;;;;;;;4897480;29;20545;-61
2022/10/18 06:10:54;;;;;;;10.00;5.50;;;;;;;;;;4897138;29;20112;-61
2022/10/18 06:13:20;;;;;;;13.07;7.00;;;;;;;;;;4896740;29;20416;-62
2022/10/18 06:15:47;;;;;;;14.32;6.60;;;;;;;;;;4911904;29;20398;-62
2022/10/18 06:18:13;;;;;;;11.38;6.25;;;;;;;;;;4897281;29;20096;-62
2022/10/18 06:20:39;;;;;;;15.85;6.93;;;;;;;;;;4895893;29;20076;-62
2022/10/18 06:23:06;;;;;;;13.80;7.25;;;;;;;;;;4896638;29;20057;-62
2022/10/18 06:25:32;;;;;;;11.63;7.75;;;;;;;;;;4896111;29;20464;-61
2022/10/18 06:27:59;;;;;;;10.65;6.25;;;;;;;;;;4911516;29;20096;-61
2022/10/18 06:30:25;;;;;;;10.25;5.32;;;;;;;;;;4896134;29;20044;-60
2022/10/18 06:32:51;;;;;;;9.10;5.20;;;;;;;;;;4895290;29;20091;-61
2022/10/18 06:35:18;;;;;;;8.27;5.13;;;;;;;;;;4898958;29;20127;-61
2022/10/18 06:37:44;;;;;;;11.52;5.20;;;;;;;;;;4900214;29;20080;-61
2022/10/18 06:40:10;;;;;;;12.45;5.15;;;;;;;;;;4899899;29;20095;-61
2022/10/18 06:42:37;;;;;;;8.40;4.95;;;;;;;;;;4901574;29;20113;-63
2022/10/18 06:45:04;;;;;;;12.32;5.22;;;;;;;;;;4902141;29;20036;-63
2022/10/18 06:47:30;;;;;;;10.65;4.40;;;;;;;;;;4902212;29;20072;-63
2022/10/18 06:49:56;;;;;;;8.82;5.32;;;;;;;;;;4901693;29;20049;-61
2022/10/18 06:52:24;;;;;;;9.82;5.30;;;;;;;;;;4901159;29;20493;-63
2022/10/18 06:54:51;;;;;;;19.25;5.10;;;;;;;;;;4901526;29;20132;-62
2022/10/18 06:57:18;;;;;;;9.02;4.55;;;;;;;;;;4901614;29;20501;-62
2022/10/18 06:59:45;;;;;;;6.45;5.22;;;;;;;;;;4900739;29;20104;-62
2022/10/18 07:02:16;;;;;;;9.85;5.85;;;;;;;;;;4898777;29;20075;-62
2022/10/18 07:04:42;;;;;;;7.13;4.70;;;;;;;;;;4900619;29;20528;-62
2022/10/18 07:07:08;;;;;;;7.18;5.30;;;;;;;;;;4899169;29;20108;-62
2022/10/18 07:09:35;;;;;;;10.15;5.68;;;;;;;;;;4900484;29;20040;-62
2022/10/18 07:12:01;;;;;;;8.88;6.05;;;;;;;;;;4900041;29;20044;-62
2022/10/18 07:14:27;;;;;;;8.20;5.20;;;;;;;;;;4900440;29;20055;-62
2022/10/18 07:16:57;;;;;;;7.70;5.20;;;;;;;;;;4901860;29;20100;-62
2022/10/18 07:19:23;;;;;;;8.63;5.45;;;;;;;;;;4900149;29;20051;-62
2022/10/18 07:21:49;;;;;;;9.93;6.40;;;;;;;;;;4899099;29;20457;-63
2022/10/18 07:24:16;;;;;;;10.90;5.22;;;;;;;;;;4899682;29;20493;-62
2022/10/18 07:26:42;;;;;;;10.40;6.18;;;;;;;;;;4900389;29;20091;-63
2022/10/18 07:29:10;;;;;;;9.15;5.30;;;;;;;;;;4899242;29;20096;-62
2022/10/18 07:31:39;;;;;;;7.82;5.00;;;;;;;;;;4899093;29;20075;-63
2022/10/18 07:34:07;;;;;;;9.07;5.65;;;;;;;;;;4900098;29;20138;-63
2022/10/18 07:36:33;;;;;;;7.47;5.47;;;;;;;;;;4900712;29;20415;-63
2022/10/18 07:39:00;;;;;;;11.90;7.22;;;;;;;;;;4898981;29;20123;-63
2022/10/18 07:41:26;;;;;;;11.43;6.20;;;;;;;;;;4899820;29;20060;-62
2022/10/18 07:43:52;;;;;;;5.85;5.25;;;;;;;;;;4899254;29;20048;-63
2022/10/18 07:46:20;;;;;;;10.88;5.82;;;;;;;;;;4899563;29;20489;-64
2022/10/18 07:48:46;;;;;;;8.52;6.72;;;;;;;;;;4885313;29;20256;-62
2022/10/18 07:51:13;;;;;;;11.20;5.43;;;;;;;;;;4881014;29;20073;-62
2022/10/18 07:53:39;;;;;;;9.90;6.82;;;;;;;;;;4880523;29;20470;-63
2022/10/18 07:56:08;;;;;;;10.00;5.03;;;;;;;;;;4880954;29;20044;-62
2022/10/18 07:58:35;;;;;;;9.43;5.97;;;;;;;;;;4880278;29;20522;-62
2022/10/18 08:01:05;;;;;;;10.55;6.60;;;;;;;;;;4879708;29;20105;-62
2022/10/18 08:03:32;;;;;;;8.57;5.50;;;;;;;;;;4880230;29;20589;-62
2022/10/18 08:05:58;;;;;;;12.02;5.65;;;;;;;;;;4879746;29;20097;-61
2022/10/18 08:08:25;;;;;;;9.10;5.38;;;;;;;;;;4864092;29;20132;-61
2022/10/18 08:10:51;;;;;;;8.90;6.15;;;;;;;;;;4880748;29;20045;-61
2022/10/18 08:13:18;;;;;;;10.93;5.85;;;;;;;;;;4880076;29;20498;-61
2022/10/18 08:15:44;;;;;;;9.77;6.63;;;;;;;;;;4880626;29;20045;-61
2022/10/18 08:18:11;;;;;;;8.50;6.00;;;;;;;;;;4880566;29;20132;-61
2022/10/18 08:20:41;;;;;;;11.05;6.43;;;;;;;;;;4880484;29;20080;-61
2022/10/18 08:23:08;;;;;;;10.48;7.35;;;;;;;;;;4879699;29;20076;-60
2022/10/18 08:25:34;;;;;;;7.50;5.80;;;;;;;;;;4880216;29;20078;-61
2022/10/18 08:28:01;;;;;;;9.77;6.30;;;;;;;;;;4880523;29;20383;-62
2022/10/18 08:30:28;;;;;;;9.07;5.95;;;;;;;;;;4880435;29;20688;-61
2022/10/18 08:32:54;;;;;;;13.50;5.80;;;;;;;;;;4879800;29;20077;-62
2022/10/18 08:35:20;;;;;;;12.57;6.93;;;;;;;;;;4880577;29;20474;-62
2022/10/18 08:37:47;;;;;;;11.10;7.05;;;;;;;;;;4880662;29;20494;-63
2022/10/18 08:40:14;;;;;;;10.55;8.10;;;;;;;;;;4880920;29;20045;-62
2022/10/18 08:42:46;;;;;;;12.43;7.50;;;;;;;;;;4879084;29;20593;-62
2022/10/18 08:45:12;;;;;;;16.83;9.15;;;;;;;;;;4881043;29;20048;-62
2022/10/18 08:48:00;;;;;;;16.17;9.90;;;;;;;;;;4881622;29;20101;-62
2022/10/18 08:50:29;;;;;;;19.48;10.13;;;;;;;;;;4880651;29;20041;-62
2022/10/18 08:52:56;;;;;;;21.63;10.95;;;;;;;;;;4880086;29;20048;-62
2022/10/18 08:55:25;;;;;;;17.95;11.30;;;;;;;;;;4883102;29;20146;-61
2022/10/18 08:57:52;;;;;;;19.33;11.18;;;;;;;;;;4884222;29;20077;-61
2022/10/18 09:00:18;;;;;;;18.77;11.93;;;;;;;;;;4883170;29;20052;-61
2022/10/18 09:02:47;;;;;;;16.55;10.82;;;;;;;;;;4885997;29;20053;-62
2022/10/18 09:05:46;;;;;;;16.60;10.10;;;;;;;;;;4885129;29;20041;-61
2022/10/18 09:08:30;;;;;;;15.68;10.13;;;;;;;;;;4880242;29;20056;-62
2022/10/18 09:10:59;;;;;;;16.60;10.00;;;;;;;;;;4880951;29;20147;-62
2022/10/18 09:13:32;;;;;;;13.55;9.50;;;;;;;;;;4880444;29;20578;-62
2022/10/18 09:15:58;;;;;;;11.85;9.02;;;;;;;;;;4880389;29;20052;-62
2022/10/18 09:18:25;;;;;;;14.10;8.90;;;;;;;;;;4880489;29;20049;-62
2022/10/18 09:20:58;;;;;;;11.20;8.70;;;;;;;;;;4881104;29;20113;-61
2022/10/18 09:23:34;;;;;;;11.05;8.05;;;;;;;;;;4895547;29;20068;-62
2022/10/18 09:26:05;;;;;;;10.20;7.75;;;;;;;;;;4887910;29;20049;-61
2022/10/18 09:28:32;;;;;;;8.68;7.13;;;;;;;;;;4892081;29;20755;-62
2022/10/18 09:31:24;;;;;;;8.48;7.10;;;;;;;;;;4895160;29;20044;-62
2022/10/18 09:33:55;;;;;;;8.98;5.85;;;;;;;;;;4894182;29;20073;-61
2022/10/18 09:36:26;;;;;;;6.68;4.95;;;;;;;;;;4898055;29;20433;-61
2022/10/18 09:38:55;;;;;;;7.70;5.10;;;;;;;;;;4897979;29;20056;-61
2022/10/18 09:41:28;;;;;;;6.55;4.30;;;;;;;;;;4898583;29;20565;-61
2022/10/18 09:44:00;;;;;;;4.28;3.03;;;;;;;;;;4888740;29;20041;-61
2022/10/18 09:46:30;;;;;;;3.20;2.90;;;;;;;;;;4898441;29;20454;-61
2022/10/18 09:49:34;;;;;;;4.72;2.65;;;;;;;;;;4897731;29;20135;-62
2022/10/18 09:52:05;;;;;;;4.13;2.60;;;;;;;;;;4876059;29;20088;-62
2022/10/18 09:54:34;;;;;;;4.97;2.63;;;;;;;;;;4876801;29;20145;-62
2022/10/18 09:57:03;;;;;;;3.35;2.20;;;;;;;;;;4887820;29;20395;-62
2022/10/18 09:59:39;;;;;;;3.05;2.08;;;;;;;;;;4897489;29;20049;-63
2022/10/18 10:02:06;;;;;;;3.47;1.90;;;;;;;;;;4897097;29;20088;-61
2022/10/18 10:04:32;;;;;;;2.50;2.20;;;;;;;;;;4896298;29;20059;-61
2022/10/18 10:07:00;;;;;;;3.50;2.65;;;;;;;;;;4897489;29;20478;-61
2022/10/18 10:09:28;;;;;;;2.63;2.20;;;;;;;;;;4891386;29;20402;-63
2022/10/18 10:11:55;;;;;;;3.15;1.90;;;;;;;;;;4877756;29;20052;-61
2022/10/18 10:14:26;;;;;;;2.25;2.00;;;;;;;;;;4878312;29;20082;-61
2022/10/18 10:16:53;;;;;;;2.22;2.03;;;;;;;;;;4878671;29;20382;-62
2022/10/18 10:19:27;;;;;;;3.22;1.95;;;;;;;;;;4878556;29;20072;-62
2022/10/18 10:21:56;;;;;;;3.22;2.00;;;;;;;;;;4878197;29;20080;-62
2022/10/18 10:24:24;;;;;;;2.13;1.92;;;;;;;;;;4878366;29;20045;-63
2022/10/18 10:27:00;;;;;;;2.08;1.50;;;;;;;;;;4877713;29;20414;-61
2022/10/18 10:29:45;;;;;;;3.03;1.90;;;;;;;;;;4877563;29;20537;-62
2022/10/18 10:32:13;;;;;;;2.10;1.42;;;;;;;;;;4878012;29;20048;-62
2022/10/18 10:34:40;;;;;;;1.70;1.60;;;;;;;;;;4878853;29;20056;-63
2022/10/18 10:37:30;;;;;;;2.25;1.52;;;;;;;;;;4878995;29;20080;-61
2022/10/18 10:40:12;;;;;;;3.53;1.85;;;;;;;;;;4878826;29;20057;-63
2022/10/18 10:42:51;;;;;;;4.03;1.70;;;;;;;;;;4878209;29;20520;-62
2022/10/18 10:45:26;;;;;;;3.20;1.70;;;;;;;;;;4879242;29;20045;-62
2022/10/18 10:47:53;;;;;;;1.10;1.10;;;;;;;;;;4878174;29;20491;-63
2022/10/18 10:50:27;;;;;;;2.75;1.80;;;;;;;;;;4879475;29;20554;-63
2022/10/18 10:52:54;;;;;;;3.28;1.60;;;;;;;;;;4862657;29;20071;-62
2022/10/18 10:55:27;;;;;;;2.15;1.80;;;;;;;;;;4879236;29;20518;-62
2022/10/18 10:58:01;;;;;;;1.77;1.60;;;;;;;;;;4878904;29;20056;-63
2022/10/18 11:00:41;;;;;;;2.80;1.50;;;;;;;;;;4877378;29;20459;-63
2022/10/18 11:03:19;;;;;;;2.42;1.40;;;;;;;;;;4877696;29;20057;-62
2022/10/18 11:05:56;;;;;;;4.10;2.00;;;;;;;;;;4878198;29;20052;-62
2022/10/18 11:08:28;;;;;;;2.28;1.98;;;;;;;;;;4878168;29;20073;-63
2022/10/18 11:11:00;;;;;;;2.55;1.50;;;;;;;;;;4876954;29;20514;-62
2022/10/18 11:13:34;;;;;;;3.55;1.65;;;;;;;;;;4877630;29;20045;-62
2022/10/18 11:16:04;;;;;;;1.90;1.60;;;;;;;;;;4878739;29;20061;-62
2022/10/18 11:18:32;;;;;;;3.95;2.70;;;;;;;;;;4878311;29;20049;-63
2022/10/18 11:21:07;;;;;;;2.75;1.92;;;;;;;;;;4878077;29;20053;-63
2022/10/18 11:23:35;;;;;;;3.17;2.35;;;;;;;;;;4876036;29;20049;-61
2022/10/18 11:26:07;;;;;;;2.40;2.05;;;;;;;;;;4877943;29;20038;-62
2022/10/18 11:28:43;;;;;;;2.00;1.80;;;;;;;;;;4878068;29;20468;-62
2022/10/18 11:31:28;;;;;;;4.32;2.22;;;;;;;;;;4876872;29;20506;-63
2022/10/18 11:34:01;;;;;;;4.20;2.20;;;;;;;;;;4877077;29;20045;-62
2022/10/18 11:36:40;;;;;;;2.42;2.20;;;;;;;;;;4881437;29;20049;-62
2022/10/18 11:39:40;;;;;;;2.63;1.65;;;;;;;;;;4881362;29;20053;-62
2022/10/18 11:42:12;;;;;;;1.70;1.60;;;;;;;;;;4881012;29;20101;-62
2022/10/18 11:44:42;;;;;;;1.85;1.40;;;;;;;;;;4880362;29;20076;-62
2022/10/18 11:47:24;;;;;;;2.40;1.77;;;;;;;;;;4881254;29;20053;-62
2022/10/18 11:49:54;;;;;;;3.05;1.50;;;;;;;;;;4881464;29;20450;-62
2022/10/18 11:52:26;;;;;;;1.63;1.52;;;;;;;;;;4881422;29;20093;-62
2022/10/18 11:54:52;;;;;;;2.53;1.70;;;;;;;;;;4880618;29;20419;-62
2022/10/18 11:57:28;;;;;;;3.25;1.73;;;;;;;;;;4881297;29;20135;-62
2022/10/18 12:00:01;;;;;;;1.58;1.48;;;;;;;;;;4879732;29;20486;-62
2022/10/18 12:02:52;;;;;;;1.67;1.52;;;;;;;;;;4879256;29;20080;-63
2022/10/18 12:05:19;;;;;;;1.95;1.40;;;;;;;;;;4880885;29;20045;-61
2022/10/18 12:07:59;;;;;;;2.20;1.30;;;;;;;;;;4880900;29;20045;-62
2022/10/18 12:10:27;;;;;;;3.83;1.30;;;;;;;;;;4880675;29;20498;-62
2022/10/18 12:13:17;;;;;;;1.35;1.10;;;;;;;;;;4880471;29;20059;-62
2022/10/18 12:15:44;;;;;;;1.02;0.90;;;;;;;;;;4880668;29;20474;-63
2022/10/18 12:18:13;;;;;;;2.28;1.25;;;;;;;;;;4880587;29;20132;-62
2022/10/18 12:20:40;;;;;;;1.33;1.00;;;;;;;;;;4880824;29;20498;-63
2022/10/18 12:23:10;;;;;;;1.20;1.00;;;;;;;;;;4880695;29;20080;-63
2022/10/18 12:25:39;;;;;;;10.02;1.95;;;;;;;;;;4880577;29;20550;-62
2022/10/18 12:28:12;;;;;;;1.30;1.20;;;;;;;;;;4880177;29;20112;-62
2022/10/18 12:30:42;;;;;;;1.52;1.25;;;;;;;;;;4878831;29;20053;-62
2022/10/18 12:33:10;;;;;;;2.05;1.45;;;;;;;;;;4879740;29;20072;-62
2022/10/18 12:35:56;;;;;;;1.75;1.40;;;;;;;;;;4880373;29;20045;-65
2022/10/18 12:38:25;;;;;;;2.35;1.10;;;;;;;;;;4880688;29;20040;-63
2022/10/18 12:40:52;;;;;;;0.82;0.80;;;;;;;;;;4880174;29;20053;-63
2022/10/18 12:43:23;;;;;;;1.10;1.00;;;;;;;;;;4880294;29;20049;-61
2022/10/18 12:45:55;;;;;;;1.40;1.00;;;;;;;;;;4882577;29;20641;-62
2022/10/18 12:48:24;;;;;;;2.92;2.53;;;;;;;;;;4883511;29;20078;-61
2022/10/18 12:50:56;;;;;;;2.38;1.17;;;;;;;;;;4880903;29;20406;-62
2022/10/18 12:53:24;;;;;;;1.13;1.02;;;;;;;;;;4879741;29;20443;-62
2022/10/18 12:55:50;;;;;;;2.63;1.00;;;;;;;;;;4880524;29;20056;-62
2022/10/18 12:58:20;;;;;;;2.75;0.70;;;;;;;;;;4880527;29;20045;-62
2022/10/18 13:00:46;;;;;;;1.13;1.05;;;;;;;;;;4879305;29;20049;-62
2022/10/18 13:03:16;;;;;;;3.50;0.93;;;;;;;;;;4879636;29;20053;-62
2022/10/18 13:05:51;;;;;;;1.92;1.45;;;;;;;;;;4879886;29;20387;-62
2022/10/18 13:08:26;;;;;;;4.28;1.15;;;;;;;;;;4879839;29;20479;-62
2022/10/18 13:11:08;;;;;;;3.97;0.90;;;;;;;;;;4880080;29;20097;-62
2022/10/18 13:13:43;;;;;;;3.40;1.25;;;;;;;;;;4878578;29;20446;-62
2022/10/18 13:16:12;;;;;;;4.55;2.92;;;;;;;;;;4880131;29;20049;-62
2022/10/18 13:18:39;;;;;;;2.20;1.77;;;;;;;;;;4878424;29;20076;-61
2022/10/18 13:21:26;;;;;;;5.05;3.70;;;;;;;;;;4878162;29;20049;-61
2022/10/18 13:23:59;;;;;;;2.33;1.60;;;;;;;;;;4878945;29;20040;-62
2022/10/18 13:26:44;;;;;;;4.55;1.80;;;;;;;;;;4878397;29;20053;-61
2022/10/18 13:29:30;;;;;;;3.88;2.42;;;;;;;;;;4879389;29;20455;-61
2022/10/18 13:32:02;;;;;;;3.35;1.95;;;;;;;;;;4879088;29;20053;-61
2022/10/18 13:34:34;;;;;;;2.90;2.58;;;;;;;;;;4879939;29;20109;-60
2022/10/18 13:37:02;;;;;;;2.00;1.80;;;;;;;;;;4878208;29;20105;-62
2022/10/18 13:39:29;;;;;;;3.47;1.55;;;;;;;;;;4878195;29;20044;-62
2022/10/18 13:41:55;;;;;;;4.13;2.03;;;;;;;;;;4879045;29;20045;-61
2022/10/18 13:44:30;;;;;;;4.82;1.30;;;;;;;;;;4877594;29;20434;-61
2022/10/18 13:46:56;;;;;;;;;;;;;;;;;;4879638;29;20073;-62
2022/10/18 13:49:26;;;;;;;5.82;2.22;;;;;;;;;;4879189;29;19971;-63
2022/10/18 13:52:06;;;;;;;3.55;1.08;;;;;;;;;;4879208;29;20467;-62
2022/10/18 13:54:50;;;;;;;1.95;0.70;;;;;;;;;;4879212;29;20053;-62
2022/10/18 13:57:26;;;;;;;2.22;1.38;;;;;;;;;;4878753;29;20470;-62
2022/10/18 13:59:52;;;;;;;1.90;1.55;;;;;;;;;;4878897;29;20116;-62
2022/10/18 14:02:37;;;;;;;1.50;1.40;;;;;;;;;;4878261;29;20502;-62
2022/10/18 14:05:40;;;;;;;6.18;3.13;;;;;;;;;;4878126;29;20092;-62
2022/10/18 14:08:30;;;;;;;2.78;1.52;;;;;;;;;;4873630;29;20076;-62
2022/10/18 14:11:15;;;;;;;1.55;0.80;;;;;;;;;;4860727;29;20151;-62
2022/10/18 14:13:44;;;;;;;0.63;0.60;;;;;;;;;;4878114;29;20041;-61
2022/10/18 14:16:22;;;;;;;1.40;1.00;;;;;;;;;;4878774;29;20463;-62
2022/10/18 14:18:50;;;;;;;2.45;1.55;;;;;;;;;;4878648;29;20091;-61
2022/10/18 14:21:22;;;;;;;2.35;0.90;;;;;;;;;;4878448;29;20060;-64
2022/10/18 14:23:54;;;;;;;1.42;1.10;;;;;;;;;;4876831;29;20044;-63
2022/10/18 14:26:21;;;;;;;2.63;1.90;;;;;;;;;;4878600;29;20052;-61
2022/10/18 14:29:14;;;;;;;0.80;0.80;;;;;;;;;;4878508;29;20052;-61
2022/10/18 14:31:42;;;;;;;1.00;0.82;;;;;;;;;;4877333;29;20147;-61
2022/10/18 14:34:13;;;;;;;2.45;1.40;;;;;;;;;;4878008;29;20048;-61
2022/10/18 14:36:40;;;;;;;1.63;1.50;;;;;;;;;;4878306;29;20064;-62
2022/10/18 14:39:15;;;;;;;1.13;1.00;;;;;;;;;;4878483;29;20071;-62
2022/10/18 14:41:49;;;;;;;1.52;1.02;;;;;;;;;;4878318;29;20049;-62
2022/10/18 14:44:20;;;;;;;1.33;1.17;;;;;;;;;;4877684;29;20052;-62
2022/10/18 14:46:48;;;;;;;28.30;15.95;;;;;;;;;;4877133;29;20116;-62
2022/10/18 14:49:16;;;;;;;26.67;20.88;;;;;;;;;;4878380;29;20109;-63
2022/10/18 14:51:44;;;;;;;15.07;11.57;;;;;;;;;;4878197;29;20045;-62